sensor_id;sensor_type;location;lat;lon;timestamp;P1;durP1;ratioP1;P2;durP2;ratioP2
49440;SDS011;35317;51.978;6.296;2022-07-23T00:03:05;7.38;;;5.80;;
49440;SDS011;35317;51.978;6.296;2022-07-23T00:08:07;9.30;;;5.93;;
49440;SDS011;35317;51.978;6.296;2022-07-23T00:13:08;9.35;;;6.05;;
49440;SDS011;35317;51.978;6.296;2022-07-23T00:18:09;10.70;;;6.60;;
49440;SDS011;35317;51.978;6.296;2022-07-23T00:23:10;10.13;;;7.70;;
49440;SDS011;35317;51.978;6.296;2022-07-23T00:28:11;8.30;;;6.43;;
49440;SDS011;35317;51.978;6.296;2022-07-23T00:33:12;13.98;;;8.43;;
49440;SDS011;35317;51.978;6.296;2022-07-23T00:38:13;8.63;;;6.90;;
49440;SDS011;35317;51.978;6.296;2022-07-23T00:43:14;10.48;;;7.10;;
49440;SDS011;35317;51.978;6.296;2022-07-23T00:48:14;9.32;;;7.63;;
49440;SDS011;35317;51.978;6.296;2022-07-23T00:53:15;13.97;;;8.27;;
49440;SDS011;35317;51.978;6.296;2022-07-23T00:58:16;16.85;;;8.77;;
49440;SDS011;35317;51.978;6.296;2022-07-23T01:03:17;13.85;;;8.75;;
49440;SDS011;35317;51.978;6.296;2022-07-23T01:08:18;16.15;;;11.52;;
49440;SDS011;35317;51.978;6.296;2022-07-23T01:13:19;13.07;;;10.30;;
49440;SDS011;35317;51.978;6.296;2022-07-23T01:18:20;17.55;;;11.07;;
49440;SDS011;35317;51.978;6.296;2022-07-23T01:23:21;15.38;;;10.00;;
49440;SDS011;35317;51.978;6.296;2022-07-23T01:28:22;15.50;;;10.68;;
49440;SDS011;35317;51.978;6.296;2022-07-23T01:33:22;21.40;;;11.65;;
49440;SDS011;35317;51.978;6.296;2022-07-23T01:38:23;18.60;;;11.40;;
49440;SDS011;35317;51.978;6.296;2022-07-23T01:43:24;16.70;;;10.15;;
49440;SDS011;35317;51.978;6.296;2022-07-23T01:48:25;15.38;;;9.35;;
49440;SDS011;35317;51.978;6.296;2022-07-23T01:53:25;16.75;;;10.27;;
49440;SDS011;35317;51.978;6.296;2022-07-23T01:58:26;17.05;;;10.50;;
49440;SDS011;35317;51.978;6.296;2022-07-23T02:03:27;16.52;;;10.07;;
49440;SDS011;35317;51.978;6.296;2022-07-23T02:08:30;18.73;;;10.13;;
49440;SDS011;35317;51.978;6.296;2022-07-23T02:13:31;15.57;;;10.73;;
49440;SDS011;35317;51.978;6.296;2022-07-23T02:18:31;20.58;;;11.45;;
49440;SDS011;35317;51.978;6.296;2022-07-23T02:23:32;17.02;;;10.88;;
49440;SDS011;35317;51.978;6.296;2022-07-23T02:28:33;19.23;;;10.82;;
49440;SDS011;35317;51.978;6.296;2022-07-23T02:33:34;15.30;;;10.40;;
49440;SDS011;35317;51.978;6.296;2022-07-23T02:38:35;22.02;;;11.57;;
49440;SDS011;35317;51.978;6.296;2022-07-23T02:43:35;17.10;;;11.63;;
49440;SDS011;35317;51.978;6.296;2022-07-23T02:48:36;21.63;;;11.75;;
49440;SDS011;35317;51.978;6.296;2022-07-23T02:53:37;23.45;;;11.70;;
49440;SDS011;35317;51.978;6.296;2022-07-23T02:58:38;17.20;;;10.45;;
49440;SDS011;35317;51.978;6.296;2022-07-23T03:03:38;20.90;;;12.93;;
49440;SDS011;35317;51.978;6.296;2022-07-23T03:08:40;15.63;;;10.77;;
49440;SDS011;35317;51.978;6.296;2022-07-23T03:13:40;23.17;;;12.57;;
49440;SDS011;35317;51.978;6.296;2022-07-23T03:18:41;17.73;;;12.52;;
49440;SDS011;35317;51.978;6.296;2022-07-23T03:23:42;22.15;;;13.25;;
49440;SDS011;35317;51.978;6.296;2022-07-23T03:28:43;24.13;;;13.15;;
49440;SDS011;35317;51.978;6.296;2022-07-23T03:33:43;22.98;;;13.90;;
49440;SDS011;35317;51.978;6.296;2022-07-23T03:38:44;22.73;;;14.05;;
49440;SDS011;35317;51.978;6.296;2022-07-23T03:43:45;21.30;;;13.45;;
49440;SDS011;35317;51.978;6.296;2022-07-23T03:48:46;20.02;;;12.93;;
49440;SDS011;35317;51.978;6.296;2022-07-23T03:53:47;20.17;;;13.70;;
49440;SDS011;35317;51.978;6.296;2022-07-23T03:58:49;18.05;;;13.30;;
49440;SDS011;35317;51.978;6.296;2022-07-23T04:03:50;18.83;;;13.38;;
49440;SDS011;35317;51.978;6.296;2022-07-23T04:08:50;24.23;;;14.90;;
49440;SDS011;35317;51.978;6.296;2022-07-23T04:13:51;27.65;;;15.48;;
49440;SDS011;35317;51.978;6.296;2022-07-23T04:18:52;25.30;;;15.77;;
49440;SDS011;35317;51.978;6.296;2022-07-23T04:23:53;29.80;;;16.42;;
49440;SDS011;35317;51.978;6.296;2022-07-23T04:28:54;29.10;;;15.65;;
49440;SDS011;35317;51.978;6.296;2022-07-23T04:33:54;28.63;;;16.17;;
49440;SDS011;35317;51.978;6.296;2022-07-23T04:38:58;23.83;;;15.75;;
49440;SDS011;35317;51.978;6.296;2022-07-23T04:49:01;26.20;;;16.35;;
49440;SDS011;35317;51.978;6.296;2022-07-23T04:54:01;24.20;;;15.70;;
49440;SDS011;35317;51.978;6.296;2022-07-23T04:59:02;21.23;;;14.60;;
49440;SDS011;35317;51.978;6.296;2022-07-23T05:04:04;21.85;;;13.52;;
49440;SDS011;35317;51.978;6.296;2022-07-23T05:09:04;19.50;;;13.20;;
49440;SDS011;35317;51.978;6.296;2022-07-23T05:14:05;18.88;;;11.75;;
49440;SDS011;35317;51.978;6.296;2022-07-23T05:19:06;17.08;;;12.38;;
49440;SDS011;35317;51.978;6.296;2022-07-23T05:24:07;18.23;;;12.18;;
49440;SDS011;35317;51.978;6.296;2022-07-23T05:29:08;16.67;;;11.52;;
49440;SDS011;35317;51.978;6.296;2022-07-23T05:34:12;19.20;;;11.25;;
49440;SDS011;35317;51.978;6.296;2022-07-23T05:39:13;17.10;;;10.82;;
49440;SDS011;35317;51.978;6.296;2022-07-23T05:44:14;13.73;;;10.02;;
49440;SDS011;35317;51.978;6.296;2022-07-23T05:49:16;17.23;;;9.65;;
49440;SDS011;35317;51.978;6.296;2022-07-23T05:54:17;14.38;;;8.70;;
49440;SDS011;35317;51.978;6.296;2022-07-23T05:59:18;10.55;;;7.85;;
49440;SDS011;35317;51.978;6.296;2022-07-23T06:04:18;10.23;;;7.65;;
49440;SDS011;35317;51.978;6.296;2022-07-23T06:09:21;12.70;;;7.72;;
49440;SDS011;35317;51.978;6.296;2022-07-23T06:14:22;11.90;;;7.70;;
49440;SDS011;35317;51.978;6.296;2022-07-23T06:19:27;11.02;;;7.80;;
49440;SDS011;35317;51.978;6.296;2022-07-23T06:24:28;9.57;;;7.72;;
49440;SDS011;35317;51.978;6.296;2022-07-23T06:29:30;9.88;;;7.25;;
49440;SDS011;35317;51.978;6.296;2022-07-23T06:34:31;12.10;;;7.13;;
49440;SDS011;35317;51.978;6.296;2022-07-23T06:39:32;12.52;;;7.65;;
49440;SDS011;35317;51.978;6.296;2022-07-23T06:44:32;9.95;;;7.30;;
49440;SDS011;35317;51.978;6.296;2022-07-23T06:49:34;8.45;;;6.03;;
49440;SDS011;35317;51.978;6.296;2022-07-23T06:54:35;14.15;;;6.30;;
49440;SDS011;35317;51.978;6.296;2022-07-23T06:59:35;9.32;;;6.15;;
49440;SDS011;35317;51.978;6.296;2022-07-23T07:10:06;7.43;;;4.45;;
49440;SDS011;35317;51.978;6.296;2022-07-23T07:15:07;9.63;;;5.50;;
49440;SDS011;35317;51.978;6.296;2022-07-23T07:20:09;5.53;;;4.85;;
49440;SDS011;35317;51.978;6.296;2022-07-23T07:25:11;5.82;;;3.83;;
49440;SDS011;35317;51.978;6.296;2022-07-23T07:30:12;6.70;;;4.30;;
49440;SDS011;35317;51.978;6.296;2022-07-23T07:35:13;10.82;;;4.70;;
49440;SDS011;35317;51.978;6.296;2022-07-23T07:40:14;4.90;;;2.53;;
49440;SDS011;35317;51.978;6.296;2022-07-23T07:45:14;5.43;;;3.25;;
49440;SDS011;35317;51.978;6.296;2022-07-23T07:50:15;5.32;;;2.88;;
49440;SDS011;35317;51.978;6.296;2022-07-23T07:55:16;4.13;;;2.40;;
49440;SDS011;35317;51.978;6.296;2022-07-23T08:00:17;4.38;;;2.40;;
49440;SDS011;35317;51.978;6.296;2022-07-23T08:05:21;6.25;;;2.22;;
49440;SDS011;35317;51.978;6.296;2022-07-23T08:10:25;5.28;;;2.83;;
49440;SDS011;35317;51.978;6.296;2022-07-23T08:15:44;7.97;;;2.88;;
49440;SDS011;35317;51.978;6.296;2022-07-23T08:20:46;6.03;;;2.80;;
49440;SDS011;35317;51.978;6.296;2022-07-23T08:25:47;7.63;;;3.40;;
49440;SDS011;35317;51.978;6.296;2022-07-23T08:30:48;5.78;;;2.38;;
49440;SDS011;35317;51.978;6.296;2022-07-23T08:35:49;7.07;;;2.10;;
49440;SDS011;35317;51.978;6.296;2022-07-23T08:40:55;3.78;;;2.33;;
49440;SDS011;35317;51.978;6.296;2022-07-23T08:46:00;6.78;;;2.72;;
49440;SDS011;35317;51.978;6.296;2022-07-23T08:51:06;4.20;;;2.30;;
49440;SDS011;35317;51.978;6.296;2022-07-23T08:56:07;4.25;;;3.08;;
49440;SDS011;35317;51.978;6.296;2022-07-23T09:01:11;5.18;;;2.92;;
49440;SDS011;35317;51.978;6.296;2022-07-23T09:06:20;5.28;;;3.20;;
49440;SDS011;35317;51.978;6.296;2022-07-23T09:11:21;4.28;;;3.17;;
49440;SDS011;35317;51.978;6.296;2022-07-23T09:16:31;4.38;;;2.60;;
49440;SDS011;35317;51.978;6.296;2022-07-23T09:21:35;5.55;;;2.72;;
49440;SDS011;35317;51.978;6.296;2022-07-23T09:26:39;3.45;;;2.30;;
49440;SDS011;35317;51.978;6.296;2022-07-23T09:36:53;5.07;;;2.30;;
49440;SDS011;35317;51.978;6.296;2022-07-23T09:42:15;2.80;;;1.90;;
49440;SDS011;35317;51.978;6.296;2022-07-23T09:47:22;3.60;;;2.20;;
49440;SDS011;35317;51.978;6.296;2022-07-23T09:52:26;3.67;;;1.80;;
49440;SDS011;35317;51.978;6.296;2022-07-23T09:57:46;3.20;;;1.95;;
49440;SDS011;35317;51.978;6.296;2022-07-23T10:02:51;5.10;;;2.55;;
49440;SDS011;35317;51.978;6.296;2022-07-23T10:07:52;3.28;;;1.75;;
49440;SDS011;35317;51.978;6.296;2022-07-23T10:12:53;3.33;;;2.10;;
49440;SDS011;35317;51.978;6.296;2022-07-23T10:17:57;2.85;;;1.70;;
49440;SDS011;35317;51.978;6.296;2022-07-23T10:29:10;3.58;;;2.35;;
49440;SDS011;35317;51.978;6.296;2022-07-23T10:34:17;6.28;;;1.95;;
49440;SDS011;35317;51.978;6.296;2022-07-23T10:45:24;4.55;;;2.70;;
49440;SDS011;35317;51.978;6.296;2022-07-23T10:50:37;4.10;;;2.13;;
49440;SDS011;35317;51.978;6.296;2022-07-23T10:55:39;3.85;;;1.95;;
49440;SDS011;35317;51.978;6.296;2022-07-23T11:00:43;4.13;;;2.10;;
49440;SDS011;35317;51.978;6.296;2022-07-23T11:05:45;2.83;;;2.10;;
49440;SDS011;35317;51.978;6.296;2022-07-23T11:10:47;4.47;;;2.10;;
49440;SDS011;35317;51.978;6.296;2022-07-23T11:16:12;8.30;;;2.17;;
49440;SDS011;35317;51.978;6.296;2022-07-23T11:31:51;3.35;;;1.70;;
49440;SDS011;35317;51.978;6.296;2022-07-23T11:36:54;3.67;;;1.40;;
49440;SDS011;35317;51.978;6.296;2022-07-23T11:41:56;3.33;;;2.13;;
49440;SDS011;35317;51.978;6.296;2022-07-23T11:47:02;5.05;;;1.80;;
49440;SDS011;35317;51.978;6.296;2022-07-23T11:52:13;3.03;;;2.17;;
49440;SDS011;35317;51.978;6.296;2022-07-23T11:57:16;2.97;;;1.55;;
49440;SDS011;35317;51.978;6.296;2022-07-23T12:02:19;5.28;;;2.15;;
49440;SDS011;35317;51.978;6.296;2022-07-23T12:07:31;4.67;;;2.33;;
49440;SDS011;35317;51.978;6.296;2022-07-23T12:12:38;3.42;;;1.80;;
49440;SDS011;35317;51.978;6.296;2022-07-23T12:17:44;3.85;;;1.60;;
49440;SDS011;35317;51.978;6.296;2022-07-23T12:22:47;3.97;;;1.80;;
49440;SDS011;35317;51.978;6.296;2022-07-23T12:33:29;4.38;;;2.17;;
49440;SDS011;35317;51.978;6.296;2022-07-23T12:38:43;2.58;;;1.92;;
49440;SDS011;35317;51.978;6.296;2022-07-23T12:43:49;2.58;;;1.90;;
49440;SDS011;35317;51.978;6.296;2022-07-23T12:53:59;3.45;;;1.70;;
49440;SDS011;35317;51.978;6.296;2022-07-23T12:59:07;4.00;;;1.73;;
49440;SDS011;35317;51.978;6.296;2022-07-23T13:04:14;3.38;;;1.85;;
49440;SDS011;35317;51.978;6.296;2022-07-23T13:09:23;2.75;;;1.20;;
49440;SDS011;35317;51.978;6.296;2022-07-23T13:14:31;4.10;;;1.65;;
49440;SDS011;35317;51.978;6.296;2022-07-23T13:19:32;4.85;;;1.90;;
49440;SDS011;35317;51.978;6.296;2022-07-23T13:24:33;3.00;;;1.60;;
49440;SDS011;35317;51.978;6.296;2022-07-23T13:29:33;3.85;;;1.58;;
49440;SDS011;35317;51.978;6.296;2022-07-23T13:34:34;2.55;;;1.60;;
49440;SDS011;35317;51.978;6.296;2022-07-23T13:39:35;4.15;;;1.70;;
49440;SDS011;35317;51.978;6.296;2022-07-23T13:44:36;2.20;;;1.52;;
49440;SDS011;35317;51.978;6.296;2022-07-23T13:49:36;4.40;;;1.80;;
49440;SDS011;35317;51.978;6.296;2022-07-23T13:54:37;3.70;;;1.80;;
49440;SDS011;35317;51.978;6.296;2022-07-23T13:59:48;2.47;;;1.67;;
49440;SDS011;35317;51.978;6.296;2022-07-23T14:04:49;2.90;;;1.48;;
49440;SDS011;35317;51.978;6.296;2022-07-23T14:09:52;1.80;;;1.60;;
49440;SDS011;35317;51.978;6.296;2022-07-23T14:14:53;4.65;;;1.65;;
49440;SDS011;35317;51.978;6.296;2022-07-23T14:19:54;2.55;;;1.50;;
49440;SDS011;35317;51.978;6.296;2022-07-23T14:24:55;3.78;;;2.00;;
49440;SDS011;35317;51.978;6.296;2022-07-23T14:29:58;4.68;;;1.98;;
49440;SDS011;35317;51.978;6.296;2022-07-23T14:35:04;3.50;;;1.67;;
49440;SDS011;35317;51.978;6.296;2022-07-23T14:40:06;2.78;;;1.52;;
49440;SDS011;35317;51.978;6.296;2022-07-23T14:45:07;3.65;;;1.90;;
49440;SDS011;35317;51.978;6.296;2022-07-23T14:50:09;3.35;;;1.80;;
49440;SDS011;35317;51.978;6.296;2022-07-23T14:55:13;2.17;;;1.40;;
49440;SDS011;35317;51.978;6.296;2022-07-23T15:00:17;3.42;;;1.80;;
49440;SDS011;35317;51.978;6.296;2022-07-23T15:05:18;3.05;;;1.92;;
49440;SDS011;35317;51.978;6.296;2022-07-23T15:10:19;3.15;;;1.50;;
49440;SDS011;35317;51.978;6.296;2022-07-23T15:15:20;6.28;;;1.48;;
49440;SDS011;35317;51.978;6.296;2022-07-23T15:20:21;2.63;;;1.70;;
49440;SDS011;35317;51.978;6.296;2022-07-23T15:25:21;3.17;;;1.70;;
49440;SDS011;35317;51.978;6.296;2022-07-23T15:30:24;3.92;;;1.67;;
49440;SDS011;35317;51.978;6.296;2022-07-23T15:35:27;2.67;;;1.90;;
49440;SDS011;35317;51.978;6.296;2022-07-23T15:40:40;1.80;;;1.63;;
49440;SDS011;35317;51.978;6.296;2022-07-23T15:45:41;3.05;;;1.60;;
49440;SDS011;35317;51.978;6.296;2022-07-23T15:50:43;2.22;;;1.80;;
49440;SDS011;35317;51.978;6.296;2022-07-23T15:55:45;2.10;;;1.90;;
49440;SDS011;35317;51.978;6.296;2022-07-23T16:00:49;4.17;;;2.17;;
49440;SDS011;35317;51.978;6.296;2022-07-23T16:05:50;4.60;;;2.00;;
49440;SDS011;35317;51.978;6.296;2022-07-23T16:10:51;3.22;;;1.90;;
49440;SDS011;35317;51.978;6.296;2022-07-23T16:15:58;4.55;;;2.45;;
49440;SDS011;35317;51.978;6.296;2022-07-23T16:21:00;3.28;;;2.00;;
49440;SDS011;35317;51.978;6.296;2022-07-23T16:26:01;5.53;;;2.15;;
49440;SDS011;35317;51.978;6.296;2022-07-23T16:31:02;2.40;;;2.13;;
49440;SDS011;35317;51.978;6.296;2022-07-23T16:36:04;2.22;;;1.90;;
49440;SDS011;35317;51.978;6.296;2022-07-23T16:41:07;3.30;;;2.10;;
49440;SDS011;35317;51.978;6.296;2022-07-23T16:46:07;3.58;;;1.77;;
49440;SDS011;35317;51.978;6.296;2022-07-23T16:51:08;2.28;;;1.70;;
49440;SDS011;35317;51.978;6.296;2022-07-23T16:56:09;3.28;;;2.20;;
49440;SDS011;35317;51.978;6.296;2022-07-23T17:01:10;2.22;;;1.95;;
49440;SDS011;35317;51.978;6.296;2022-07-23T17:06:11;3.95;;;2.35;;
49440;SDS011;35317;51.978;6.296;2022-07-23T17:11:11;4.55;;;2.50;;
49440;SDS011;35317;51.978;6.296;2022-07-23T17:16:12;3.63;;;2.28;;
49440;SDS011;35317;51.978;6.296;2022-07-23T17:21:13;3.70;;;2.35;;
49440;SDS011;35317;51.978;6.296;2022-07-23T17:26:17;3.08;;;2.05;;
49440;SDS011;35317;51.978;6.296;2022-07-23T17:31:22;6.38;;;2.53;;
49440;SDS011;35317;51.978;6.296;2022-07-23T17:36:23;3.67;;;2.22;;
49440;SDS011;35317;51.978;6.296;2022-07-23T17:41:28;3.20;;;2.40;;
49440;SDS011;35317;51.978;6.296;2022-07-23T17:46:29;5.80;;;2.47;;
49440;SDS011;35317;51.978;6.296;2022-07-23T17:51:31;5.43;;;2.95;;
49440;SDS011;35317;51.978;6.296;2022-07-23T17:56:33;4.07;;;2.33;;
49440;SDS011;35317;51.978;6.296;2022-07-23T18:01:37;6.10;;;2.83;;
49440;SDS011;35317;51.978;6.296;2022-07-23T18:06:39;4.63;;;2.17;;
49440;SDS011;35317;51.978;6.296;2022-07-23T18:16:54;3.53;;;2.13;;
49440;SDS011;35317;51.978;6.296;2022-07-23T18:22:22;4.18;;;2.30;;
49440;SDS011;35317;51.978;6.296;2022-07-23T18:27:24;4.10;;;2.40;;
49440;SDS011;35317;51.978;6.296;2022-07-23T18:32:31;4.18;;;2.53;;
49440;SDS011;35317;51.978;6.296;2022-07-23T18:37:32;4.65;;;2.20;;
49440;SDS011;35317;51.978;6.296;2022-07-23T18:42:36;4.40;;;2.53;;
49440;SDS011;35317;51.978;6.296;2022-07-23T18:47:37;3.83;;;2.70;;
49440;SDS011;35317;51.978;6.296;2022-07-23T18:52:39;5.28;;;2.60;;
49440;SDS011;35317;51.978;6.296;2022-07-23T18:57:40;3.53;;;2.60;;
49440;SDS011;35317;51.978;6.296;2022-07-23T19:02:40;2.92;;;2.25;;
49440;SDS011;35317;51.978;6.296;2022-07-23T19:07:41;5.18;;;2.40;;
49440;SDS011;35317;51.978;6.296;2022-07-23T19:12:43;5.05;;;2.40;;
49440;SDS011;35317;51.978;6.296;2022-07-23T19:17:44;3.88;;;2.70;;
49440;SDS011;35317;51.978;6.296;2022-07-23T19:22:45;3.67;;;2.65;;
49440;SDS011;35317;51.978;6.296;2022-07-23T19:27:46;6.20;;;2.83;;
49440;SDS011;35317;51.978;6.296;2022-07-23T19:32:47;6.50;;;3.00;;
49440;SDS011;35317;51.978;6.296;2022-07-23T19:37:48;6.53;;;3.35;;
49440;SDS011;35317;51.978;6.296;2022-07-23T19:42:49;3.70;;;3.33;;
49440;SDS011;35317;51.978;6.296;2022-07-23T19:47:50;5.38;;;3.60;;
49440;SDS011;35317;51.978;6.296;2022-07-23T19:52:51;7.25;;;4.15;;
49440;SDS011;35317;51.978;6.296;2022-07-23T19:57:52;5.20;;;4.05;;
49440;SDS011;35317;51.978;6.296;2022-07-23T20:02:58;4.77;;;4.27;;
49440;SDS011;35317;51.978;6.296;2022-07-23T20:12:59;6.90;;;4.00;;
49440;SDS011;35317;51.978;6.296;2022-07-23T20:18:00;5.53;;;3.75;;
49440;SDS011;35317;51.978;6.296;2022-07-23T20:23:01;8.90;;;3.88;;
49440;SDS011;35317;51.978;6.296;2022-07-23T20:28:02;6.32;;;4.22;;
49440;SDS011;35317;51.978;6.296;2022-07-23T20:33:03;6.45;;;4.47;;
49440;SDS011;35317;51.978;6.296;2022-07-23T20:38:04;8.00;;;4.57;;
49440;SDS011;35317;51.978;6.296;2022-07-23T20:43:08;7.05;;;4.50;;
49440;SDS011;35317;51.978;6.296;2022-07-23T20:48:09;6.50;;;4.43;;
49440;SDS011;35317;51.978;6.296;2022-07-23T20:53:11;7.25;;;4.75;;
49440;SDS011;35317;51.978;6.296;2022-07-23T20:58:12;10.82;;;6.43;;
49440;SDS011;35317;51.978;6.296;2022-07-23T21:03:13;14.32;;;7.80;;
49440;SDS011;35317;51.978;6.296;2022-07-23T21:08:14;9.98;;;6.15;;
49440;SDS011;35317;51.978;6.296;2022-07-23T21:13:15;8.25;;;6.07;;
49440;SDS011;35317;51.978;6.296;2022-07-23T21:18:16;6.90;;;5.60;;
49440;SDS011;35317;51.978;6.296;2022-07-23T21:23:17;7.63;;;5.15;;
49440;SDS011;35317;51.978;6.296;2022-07-23T21:28:18;7.93;;;5.63;;
49440;SDS011;35317;51.978;6.296;2022-07-23T21:33:19;7.53;;;5.35;;
49440;SDS011;35317;51.978;6.296;2022-07-23T21:38:20;8.25;;;5.90;;
49440;SDS011;35317;51.978;6.296;2022-07-23T21:43:21;8.15;;;6.22;;
49440;SDS011;35317;51.978;6.296;2022-07-23T21:48:22;8.25;;;7.25;;
49440;SDS011;35317;51.978;6.296;2022-07-23T21:53:23;9.15;;;5.88;;
49440;SDS011;35317;51.978;6.296;2022-07-23T21:58:24;9.48;;;6.85;;
49440;SDS011;35317;51.978;6.296;2022-07-23T22:03:26;9.80;;;7.22;;
49440;SDS011;35317;51.978;6.296;2022-07-23T22:08:27;8.68;;;6.38;;
49440;SDS011;35317;51.978;6.296;2022-07-23T22:13:28;10.43;;;7.20;;
49440;SDS011;35317;51.978;6.296;2022-07-23T22:18:28;8.60;;;6.80;;
49440;SDS011;35317;51.978;6.296;2022-07-23T22:23:32;9.82;;;7.00;;
49440;SDS011;35317;51.978;6.296;2022-07-23T22:28:33;8.02;;;6.20;;
49440;SDS011;35317;51.978;6.296;2022-07-23T22:33:33;9.07;;;6.68;;
49440;SDS011;35317;51.978;6.296;2022-07-23T22:38:34;10.48;;;6.70;;
49440;SDS011;35317;51.978;6.296;2022-07-23T22:43:35;8.32;;;6.25;;
49440;SDS011;35317;51.978;6.296;2022-07-23T22:48:56;8.07;;;6.72;;
49440;SDS011;35317;51.978;6.296;2022-07-23T22:54:08;8.70;;;6.60;;
49440;SDS011;35317;51.978;6.296;2022-07-23T22:59:11;11.18;;;6.18;;
49440;SDS011;35317;51.978;6.296;2022-07-23T23:04:13;7.38;;;6.22;;
49440;SDS011;35317;51.978;6.296;2022-07-23T23:09:14;9.57;;;6.50;;
49440;SDS011;35317;51.978;6.296;2022-07-23T23:14:58;11.80;;;6.85;;
49440;SDS011;35317;51.978;6.296;2022-07-23T23:19:59;11.10;;;7.70;;
49440;SDS011;35317;51.978;6.296;2022-07-23T23:25:21;11.38;;;7.35;;
49440;SDS011;35317;51.978;6.296;2022-07-23T23:30:34;9.98;;;6.82;;
49440;SDS011;35317;51.978;6.296;2022-07-23T23:35:38;10.73;;;7.40;;
49440;SDS011;35317;51.978;6.296;2022-07-23T23:40:45;9.43;;;7.28;;
49440;SDS011;35317;51.978;6.296;2022-07-23T23:45:47;10.05;;;7.70;;
49440;SDS011;35317;51.978;6.296;2022-07-23T23:50:48;9.52;;;7.40;;
49440;SDS011;35317;51.978;6.296;2022-07-23T23:55:49;8.15;;;6.25;;
